Nearby METAR Reports

 

LGBL - Nea Anchialos, Greece
Distance from station: SW 15km
Updated: 27/02/2015 22:50
Rain, Overcast
Rain, Overcast
 Wind from W
Wind: W 9 km/h
Temperature: 9°C
Wind Chill: 7°C
Dew Point: 9°C
Humidity: 100%
Barometer: 1005 hPa
Summary: Rain
Clouds: Overcast
Visibility: 6 km
Cloud details: Partly cloudy 244 m
Mostly cloudy 610 m
Overcast 2134 m
2015/02/27 20:50 LGBL 272050Z 27005KT 6000 RA SCT008 BKN020 OVC070 09/09 Q1005
LGSK - Skiathos Island, Greece
Distance from station: ESE 51km
Updated: 27/02/2015 20:50
NOT Current
Light rain, Overcast
Light rain, Overcast
 Wind from varies
Wind: varies 0 km/h
Temperature: 12°C
Dew Point: 10°C
Humidity: 88%
Barometer: 1004 hPa
Summary: Light rain
Clouds: Overcast
Visibility: 6 km
Cloud details: Few Clouds 457 m
Few Clouds 549 m
Mostly cloudy 762 m
Overcast 2134 m
2015/02/27 18:50 LGSK 271850Z /////KT 6000 -RA FEW015 FEW018TCU BKN025 OVC070 12/10 Q1004
 
LGTS - Thessaloniki/Mik, Greece
Distance from station: N 135km
Updated: 27/02/2015 22:50
Drizzle, Overcast
Drizzle, Overcast
 Wind from NNW
Wind: NNW 22 km/h
Temperature: 11°C
Dew Point: 8°C
Humidity: 82%
Barometer: 1007 hPa
Summary: Drizzle
Clouds: Overcast
Visibility: 10 km
Cloud details: Few Clouds 366 m
Mostly cloudy 762 m
Overcast 2134 m
2015/02/27 20:50 LGTS 272050Z 33012KT 9999 DZ FEW012 BKN025 OVC070 11/08 Q1007 TEMPO RA
LGSY - Skiros, Greece
Distance from station: ESE 139km
Updated: 27/02/2015 19:50
NOT Current
Light rain, Mostly cloudy
Light rain, Mostly cloudy
 Wind from E
Wind: E 13 km/h
Temperature: 10°C
Wind Chill: 8°C
Dew Point: 8°C
Humidity: 88%
Barometer: 1003 hPa
Summary: Light rain
Clouds: Mostly cloudy
Visibility: 8 km
Cloud details: Partly cloudy 366 m
Few Clouds 549 m
Mostly cloudy 610 m
Mostly cloudy 2438 m
2015/02/27 17:50 LGSY 271750Z 10007KT 8000 -RA SCT012 FEW018TCU BKN020 BKN080 10/08 Q1003 BLU
 
LGKZ - Kozani (civ/Army, Greece
Distance from station: NW 144km
Updated: 27/02/2015 22:50
Light rain
Light rain
 Wind from NW
Wind: NW 11 km/h
Temperature: 7°C
Wind Chill: 5°C
Dew Point: 5°C
Humidity: 87%
Barometer: 1007 hPa
Summary: Light rain
2015/02/27 20:50 LGKZ 272050Z AUTO 32006KT //// -RA ////// 07/05 Q1007 RE//
LGEL - Elefsis (hel-Afb, Greece
Distance from station: SSE 147km
Updated: 27/02/2015 22:50
Light rain, Overcast
Light rain, Overcast
 Wind from calm
Wind: Calm
Temperature: 9°C
Dew Point: 9°C
Humidity: 100%
Barometer: 1005 hPa
Summary: Light rain
Clouds: Overcast
Visibility: 7 km
Cloud details: Few Clouds 305 m
Mostly cloudy 762 m
Overcast 2134 m
2015/02/27 20:50 LGEL 272050Z 00000KT 7000 -RA FEW010 BKN025 OVC070 09/09 Q1005
 
LGAV - Athens/Elef-Ven, Greece
Distance from station: SSE 176km
Updated: 27/02/2015 22:50
Light rain, Mostly cloudy
Light rain, Mostly cloudy
 Wind from S
Wind: S 4 km/h
Temperature: 10°C
Dew Point: 7°C
Humidity: 82%
Barometer: 1006 hPa
Summary: Light rain
Clouds: Mostly cloudy
Visibility: 10 km
Cloud details: Few Clouds 610 m
Partly cloudy 914 m
Mostly cloudy 2134 m
2015/02/27 20:50 LGAV 272050Z 18002KT 9999 -RA FEW020 SCT030 BKN070 10/07 Q1006 NOSIG
LGRX - Araxos (civ/Afb), Greece
Distance from station: SW 182km
Updated: 27/02/2015 22:50
Light rain, Overcast
Light rain, Overcast
 Wind from NE
Wind: NE 7 km/h
Temperature: 10°C
Wind Chill: 9°C
Dew Point: 10°C
Humidity: 100%
Barometer: 1007 hPa
Summary: Light rain
Clouds: Overcast
Visibility: 8 km
Cloud details: Few Clouds 610 m
Mostly cloudy 762 m
Overcast 2438 m
2015/02/27 20:50 LGRX 272050Z 05004KT 8000 -RA FEW020TCU BKN025 OVC080 10/10 Q1007
 
LGIO - Ioannina, Greece
Distance from station: WNW 187km
Updated: 27/02/2015 22:50
Light rain
Light rain
 Wind from varies
Wind: varies 6 km/h
Temperature: 9°C
Dew Point: 6°C
Humidity: 82%
Barometer: 1006 hPa
Summary: Light rain
2015/02/27 20:50 LGIO 272050Z AUTO VRB03KT //// -RA ////// 09/06 Q1006 RE//
LGPZ - Preveza/Aktion, Greece
Distance from station: WSW 191km
Updated: 27/02/2015 22:50
Overcast
Overcast
 Wind from calm
Wind: Calm
Temperature: 10°C
Dew Point: 8°C
Humidity: 88%
Barometer: 1008 hPa
Clouds: Overcast
Visibility: 10 km
Cloud details: Few Clouds 366 m
Few Clouds 610 m
Partly cloudy 762 m
Overcast 2438 m
2015/02/27 20:50 LGPZ 272050Z 00000KT 9999 FEW012 FEW020TCU SCT025 OVC080 10/08 Q1008
 
LGLM - Limnos Island Ar, Greece
Distance from station: ENE 209km
Updated: 27/02/2015 22:50
Light rain
Light rain
 Wind from SE
Wind: SE 15 km/h
Temperature: 11°C
Dew Point: 10°C
Humidity: 94%
Barometer: 1006 hPa
Summary: Light rain
2015/02/27 20:50 LGLM 272050Z AUTO 13008KT //// -RA ////// 11/10 Q1006 RE//
LGAD - Andravida (civ/A, Greece
Distance from station: SW 211km
Updated: 27/02/2015 22:50
Overcast
Overcast
 Wind from calm
Wind: Calm
Temperature: 9°C
Dew Point: 8°C
Humidity: 94%
Barometer: 1007 hPa
Clouds: Overcast
Visibility: 10 km
Cloud details: Few Clouds 549 m
Partly cloudy 762 m
Overcast 2438 m
2015/02/27 20:50 LGAD 272050Z 00000KT 9999 FEW018TCU SCT025 OVC080 09/08 Q1007
 
LGKV - Kavala/Chrisoupo, Greece
Distance from station: NE 230km
Updated: 27/02/2015 22:50
Mostly cloudy
Mostly cloudy
 Wind from E
Wind: E 15 km/h
Temperature: 13°C
Dew Point: 9°C
Humidity: 77%
Barometer: 1006 hPa
Clouds: Mostly cloudy
Visibility: 10 km
Cloud details: Partly cloudy 914 m
Mostly cloudy 2438 m
2015/02/27 20:50 LGKV 272050Z 09008KT 9999 SCT030 BKN080 13/09 Q1006
LGKF - Kefallinia, Greece
Distance from station: WSW 249km
Updated: 27/02/2015 22:50
Light rain
Light rain
 Wind from NNW
Wind: NNW 9 km/h
Summary: Light rain
2015/02/27 20:50 LGKF 272050Z AUTO 33005KT 280V350 //// -RA ////// 12/// Q1007 RE//
 
LGZA - Zakinthos Airpor, Greece
Distance from station: SW 249km
Updated: 27/02/2015 22:50

 Wind from NNW
Wind: NNW 7 km/h
2015/02/27 20:50 LGZA 272050Z AUTO 33004KT //// // ////// 10/// Q1007 RERA
LGKL - Kalamata (hel-Af, Greece
Distance from station: SSW 261km
Updated: 27/02/2015 22:50
Light rain, Overcast
Light rain, Overcast
 Wind from calm
Wind: Calm
Temperature: 10°C
Dew Point: 9°C
Humidity: 94%
Barometer: 1007 hPa
Summary: Light rain
Clouds: Overcast
Visibility: 10 km
Cloud details: Partly cloudy 610 m
Partly cloudy 914 m
Overcast 2438 m
2015/02/27 20:50 LGKL 272050Z 00000KT 9999 -RA SCT020TCU SCT030 OVC080 10/09 Q1007
 
LGKR - Ioannis Kapodist, Greece
Distance from station: W 261km
Updated: 27/02/2015 22:50
Overcast
Overcast
 Wind from W
Wind: W 6 km/h
Temperature: 11°C
Dew Point: 9°C
Humidity: 88%
Barometer: 1007 hPa
Clouds: Overcast
Visibility: 10 km
Cloud details: Few Clouds 549 m
Mostly cloudy 1067 m
Overcast 2438 m
2015/02/27 20:50 LGKR 272050Z 27003KT 9999 FEW018TCU BKN035 OVC080 11/09 Q1007 NOSIG
LGSO - Syros, Greece
Distance from station: SE 274km
Updated: 27/02/2015 22:50
Light rain
Light rain
 Wind from SSW
Wind: SSW 31 km/h, Gust: 61 km/h
Temperature: 12°C
Dew Point: 9°C
Humidity: 82%
Barometer: 1006 hPa
Summary: Light rain
2015/02/27 20:50 LGSO 272050Z AUTO 21017G33KT 190V280 //// -RA ////// 12/09 Q1006 RE//
 
LGMK - Mikonos Island, Greece
Distance from station: SE 296km
Updated: 27/02/2015 19:50
NOT Current
Partly cloudy
Partly cloudy
 Wind from SSW
Wind: SSW 15 km/h, Gust: 33 km/h
Temperature: 12°C
Dew Point: 8°C
Humidity: 77%
Barometer: 1006 hPa
Clouds: Partly cloudy
Visibility: 10 km
Cloud details: Partly cloudy 610 m
Partly cloudy 2438 m
2015/02/27 17:50 LGMK 271750Z 21008G18KT 9999 SCT020 SCT080 12/08 Q1006